Time;durP1;ratioP1;P1;durP2;ratioP2;P2;SDS_P1;SDS_P2;PMS_P1;PMS_P2;Temp;Humidity;BMP_temperature;BMP_pressure;BME280_temperature;BME280_humidity;BME280_pressure;Samples;Min_cycle;Max_cycle;Signal;HPM_P1;HPM_P2
2022/08/21 00:03:21;;;;;;;5.82;4.15;;;;;;;19.01;63.42;101567.38;6003345;29;20243;-75
2022/08/21 00:06:42;;;;;;;7.97;4.57;;;;;;;19.07;63.50;101572.16;5996698;29;20238;-75
2022/08/21 00:10:05;;;;;;;8.75;5.85;;;;;;;18.96;63.57;101573.34;5997540;29;20239;-75
2022/08/21 00:13:26;;;;;;;9.60;5.85;;;;;;;18.97;63.36;101572.34;6005083;29;20234;-75
2022/08/21 00:16:47;;;;;;;4.78;3.80;;;;;;;19.06;63.08;101565.00;6003871;29;20532;-75
2022/08/21 00:20:12;;;;;;;6.53;5.10;;;;;;;18.88;63.65;101570.66;6001923;29;20242;-75
2022/08/21 00:23:34;;;;;;;6.10;4.57;;;;;;;18.89;63.61;101571.50;5998796;29;20258;-74
2022/08/21 00:26:56;;;;;;;6.00;4.47;;;;;;;18.91;63.85;101562.13;6004614;29;20258;-74
2022/08/21 00:30:19;;;;;;;6.85;4.60;;;;;;;18.91;63.67;101553.06;6000098;29;20243;-74
2022/08/21 00:33:40;;;;;;;5.80;4.82;;;;;;;18.91;64.17;101553.06;6007214;29;20238;-73
2022/08/21 00:37:02;;;;;;;8.35;4.82;;;;;;;18.95;63.39;101555.28;6007673;29;20369;-74
2022/08/21 00:40:29;;;;;;;8.15;5.13;;;;;;;18.71;64.63;101540.81;6004157;29;20290;-74
2022/08/21 00:43:51;;;;;;;7.38;5.68;;;;;;;18.54;65.11;101547.28;6001576;29;20250;-74
2022/08/21 00:47:12;;;;;;;6.38;5.03;;;;;;;18.52;65.36;101550.22;6007065;29;20242;-73
2022/08/21 00:50:39;;;;;;;6.13;4.90;;;;;;;18.63;65.01;101549.84;6004362;29;20750;-75
2022/08/21 00:54:03;;;;;;;6.03;4.88;;;;;;;18.70;65.40;101545.41;6008251;29;20677;-73
2022/08/21 00:57:28;;;;;;;7.72;4.82;;;;;;;18.59;65.33;101547.63;6004477;29;20234;-75
2022/08/21 01:00:52;;;;;;;6.18;5.03;;;;;;;18.54;65.71;101550.88;6002783;29;20234;-74
2022/08/21 01:04:14;;;;;;;7.10;5.72;;;;;;;18.26;67.53;101550.31;6006832;29;20568;-74
2022/08/21 01:07:36;;;;;;;8.55;5.53;;;;;;;18.29;67.77;101546.41;6000764;29;20235;-74
2022/08/21 01:11:00;;;;;;;6.32;5.05;;;;;;;18.29;67.75;101549.13;6005557;29;20230;-74
2022/08/21 01:14:21;;;;;;;8.38;5.80;;;;;;;18.02;69.27;101547.53;6015049;29;20239;-75
2022/08/21 01:17:50;;;;;;;5.80;4.25;;;;;;;18.06;69.45;101545.34;6003683;29;20242;-73
2022/08/21 01:21:15;;;;;;;7.25;4.85;;;;;;;18.09;69.20;101550.47;6001165;29;20238;-74
2022/08/21 01:24:36;;;;;;;6.25;4.10;;;;;;;18.25;68.83;101548.59;5993353;29;20258;-73
2022/08/21 01:28:00;;;;;;;5.00;4.25;;;;;;;18.34;68.86;101544.00;6003808;29;20235;-75
2022/08/21 01:31:24;;;;;;;7.35;5.35;;;;;;;18.31;68.88;101549.81;5993947;29;20254;-74
2022/08/21 01:34:47;;;;;;;6.65;4.80;;;;;;;18.34;68.64;101550.31;6003862;29;20230;-74
2022/08/21 01:38:10;;;;;;;5.35;4.55;;;;;;;18.25;69.62;101554.06;6008535;29;20238;-74
2022/08/21 01:41:32;;;;;;;5.72;4.82;;;;;;;18.17;69.37;101551.34;6003326;29;20234;-74
2022/08/21 01:44:53;;;;;;;6.68;5.45;;;;;;;18.28;69.30;101542.81;6010808;29;20234;-74
2022/08/21 01:48:14;;;;;;;5.13;4.38;;;;;;;18.37;68.90;101557.34;6010746;29;20238;-75
2022/08/21 01:51:34;;;;;;;6.15;4.90;;;;;;;18.38;69.32;101547.28;6006653;29;20635;-74
2022/08/21 01:54:57;;;;;;;5.60;5.10;;;;;;;18.34;69.18;101544.88;6003565;29;20275;-74
2022/08/21 01:58:18;;;;;;;5.45;4.72;;;;;;;18.21;69.61;101543.69;6005008;29;20278;-75
2022/08/21 02:01:40;;;;;;;9.90;5.60;;;;;;;18.09;70.08;101542.28;6007562;29;20238;-74
2022/08/21 02:05:01;;;;;;;6.07;5.07;;;;;;;18.05;70.28;101540.91;6008669;29;20234;-74
2022/08/21 02:08:22;;;;;;;6.47;4.88;;;;;;;17.95;70.80;101548.41;6001015;29;20242;-75
2022/08/21 02:11:45;;;;;;;7.47;4.90;;;;;;;18.17;70.05;101540.41;6003690;29;20277;-75
2022/08/21 02:15:07;;;;;;;5.63;4.18;;;;;;;18.23;69.80;101538.91;6003340;29;20345;-73
2022/08/21 02:18:29;;;;;;;6.97;4.65;;;;;;;18.09;70.61;101545.00;6017367;29;20230;-73
2022/08/21 02:21:50;;;;;;;7.15;4.30;;;;;;;18.02;70.87;101544.00;6004221;29;20234;-75
2022/08/21 02:25:11;;;;;;;3.92;3.55;;;;;;;18.01;70.85;101547.72;6009546;29;20317;-75
2022/08/21 02:28:34;;;;;;;4.40;4.00;;;;;;;18.06;70.80;101542.63;6004891;29;20254;-74
2022/08/21 02:31:55;;;;;;;5.25;4.45;;;;;;;17.99;70.93;101537.00;6007986;29;20668;-74
2022/08/21 02:35:16;;;;;;;5.40;3.67;;;;;;;18.11;70.99;101537.50;6005006;29;20247;-74
2022/08/21 02:38:40;;;;;;;4.43;3.75;;;;;;;18.00;70.76;101538.69;6012533;29;20234;-74
2022/08/21 02:42:01;;;;;;;4.97;4.10;;;;;;;18.20;70.49;101536.50;6004944;29;20239;-74
2022/08/21 02:45:23;;;;;;;5.30;4.30;;;;;;;18.17;69.70;101537.69;6008505;29;20258;-75
2022/08/21 02:48:46;;;;;;;6.80;4.00;;;;;;;18.11;69.73;101537.50;6006844;29;20235;-74
2022/08/21 02:52:06;;;;;;;4.88;4.10;;;;;;;17.70;70.04;101533.84;6002407;29;20238;-74
2022/08/21 02:55:30;;;;;;;7.18;4.50;;;;;;;17.76;70.03;101532.31;6007910;29;20266;-74
2022/08/21 02:58:53;;;;;;;5.32;4.20;;;;;;;17.79;69.95;101524.69;6002888;29;20301;-75
2022/08/21 03:02:16;;;;;;;7.60;5.40;;;;;;;17.79;69.85;101521.94;6007969;29;20231;-74
2022/08/21 03:05:38;;;;;;;6.10;4.57;;;;;;;17.63;70.38;101521.88;6009628;29;20241;-74
2022/08/21 03:08:59;;;;;;;6.75;5.50;;;;;;;17.74;70.02;101523.44;6006031;29;20257;-74
2022/08/21 03:12:19;;;;;;;6.40;5.07;;;;;;;17.54;70.41;101529.19;6007812;29;20524;-74
2022/08/21 03:15:41;;;;;;;8.82;7.82;;;;;;;17.42;71.24;101526.88;6010469;29;20242;-74
2022/08/21 03:19:04;;;;;;;7.78;6.93;;;;;;;17.45;70.34;101524.72;6006755;29;20261;-74
2022/08/21 03:22:26;;;;;;;8.38;7.60;;;;;;;17.56;70.50;101526.31;6009282;29;20807;-74
2022/08/21 03:25:49;;;;;;;7.07;5.40;;;;;;;17.64;70.00;101515.44;6002044;29;20246;-74
2022/08/21 03:29:10;;;;;;;8.30;6.32;;;;;;;17.63;70.33;101523.78;6009774;29;20234;-75
2022/08/21 03:32:31;;;;;;;7.15;6.05;;;;;;;17.63;70.36;101519.16;6007992;29;20235;-73
2022/08/21 03:36:00;;;;;;;6.78;5.30;;;;;;;17.45;70.50;101521.97;6007859;29;20242;-75
2022/08/21 03:39:21;;;;;;;5.93;5.28;;;;;;;17.57;70.19;101519.81;6009143;29;20274;-74
2022/08/21 03:42:42;;;;;;;5.10;4.57;;;;;;;17.63;69.84;101521.06;5998815;29;20334;-75
2022/08/21 03:46:04;;;;;;;5.40;3.72;;;;;;;17.65;69.62;101516.28;6007112;29;20419;-74
2022/08/21 03:49:26;;;;;;;8.10;6.50;;;;;;;17.43;70.62;101517.69;6009234;29;20620;-75
2022/08/21 03:52:51;;;;;;;5.80;5.30;;;;;;;17.40;70.33;101518.88;6006070;29;20325;-74
2022/08/21 03:56:12;;;;;;;8.45;6.32;;;;;;;17.38;70.70;101523.66;6007224;29;20845;-74
2022/08/21 03:59:33;;;;;;;5.18;4.68;;;;;;;17.29;70.73;101515.63;6007231;29;20230;-74
2022/08/21 04:02:54;;;;;;;7.82;6.40;;;;;;;17.17;71.40;101525.06;6007370;29;20235;-74
2022/08/21 04:06:15;;;;;;;8.13;5.07;;;;;;;17.19;71.14;101520.34;6005687;29;20239;-74
2022/08/21 04:09:38;;;;;;;5.32;4.03;;;;;;;17.33;70.81;101519.72;6001231;29;20260;-74
2022/08/21 04:12:59;;;;;;;6.00;4.18;;;;;;;17.27;71.13;101523.09;5999802;29;20345;-74
2022/08/21 04:16:20;;;;;;;4.47;3.25;;;;;;;17.40;70.28;101524.34;6002782;29;20226;-74
2022/08/21 04:19:41;;;;;;;6.30;4.50;;;;;;;17.44;70.44;101522.97;6003689;29;20242;-74
2022/08/21 04:23:03;;;;;;;4.50;3.97;;;;;;;17.30;70.79;101517.31;6000084;29;20221;-74
2022/08/21 04:26:26;;;;;;;5.80;5.22;;;;;;;17.18;70.61;101527.66;6002340;29;20238;-74
2022/08/21 04:29:47;;;;;;;6.40;4.20;;;;;;;17.33;70.83;101525.16;6001437;29;20242;-74
2022/08/21 04:33:08;;;;;;;4.80;3.65;;;;;;;17.42;70.37;101525.03;6006318;29;20230;-74
2022/08/21 04:36:29;;;;;;;5.18;3.97;;;;;;;17.42;70.42;101527.75;5989333;29;20693;-73
2022/08/21 04:39:50;;;;;;;5.35;4.85;;;;;;;17.37;70.64;101530.13;6002298;29;20234;-74
2022/08/21 04:43:13;;;;;;;5.85;3.97;;;;;;;17.47;69.61;101528.13;6005427;29;20248;-74
2022/08/21 04:46:33;;;;;;;4.78;4.20;;;;;;;17.42;69.92;101529.63;6005384;29;20551;-74
2022/08/21 04:49:54;;;;;;;5.72;4.75;;;;;;;17.37;69.91;101542.91;6004836;29;20836;-73
2022/08/21 04:53:19;;;;;;;6.80;5.70;;;;;;;17.58;69.58;101541.47;6003765;29;20245;-75
2022/08/21 04:56:43;;;;;;;4.90;4.30;;;;;;;17.64;68.90;101542.69;6006761;29;20231;-75
2022/08/21 05:00:07;;;;;;;7.63;4.75;;;;;;;17.58;69.39;101542.50;5999051;29;20230;-74
2022/08/21 05:03:33;;;;;;;5.82;4.25;;;;;;;17.63;69.49;101543.69;6009778;29;20246;-75
2022/08/21 05:06:58;;;;;;;6.55;4.35;;;;;;;17.69;68.79;101550.38;6004999;29;20246;-75
2022/08/21 05:10:19;;;;;;;7.65;4.25;;;;;;;17.71;68.86;101549.19;6009155;29;20234;-74
2022/08/21 05:13:41;;;;;;;3.97;3.67;;;;;;;17.62;68.75;101546.59;6008388;29;20837;-75
2022/08/21 05:17:04;;;;;;;6.15;5.50;;;;;;;17.74;68.92;101545.28;6009193;29;20234;-74
2022/08/21 05:20:25;;;;;;;6.28;5.53;;;;;;;17.90;68.57;101546.16;6012099;29;20242;-75
2022/08/21 05:23:45;;;;;;;7.40;3.95;;;;;;;17.52;69.39;101549.47;6006904;29;20259;-74
2022/08/21 05:27:07;;;;;;;7.50;4.50;;;;;;;17.98;68.88;101548.06;6007183;29;20695;-75
2022/08/21 05:30:28;;;;;;;9.63;7.97;;;;;;;18.20;67.09;101556.47;6007327;29;20234;-74
2022/08/21 05:33:50;;;;;;;6.57;5.80;;;;;;;18.03;67.47;101560.19;6008234;29;20237;-75
2022/08/21 05:37:12;;;;;;;7.82;4.88;;;;;;;18.34;66.64;101561.25;6008102;29;20243;-73
2022/08/21 05:40:34;;;;;;;4.85;4.35;;;;;;;18.52;66.02;101558.41;6009100;29;20250;-75
2022/08/21 05:43:54;;;;;;;3.95;3.58;;;;;;;18.42;66.14;101554.09;6008827;29;20231;-74
2022/08/21 05:47:15;;;;;;;4.20;3.28;;;;;;;18.28;66.61;101553.75;6008799;29;20367;-74
2022/08/21 05:50:38;;;;;;;8.93;3.95;;;;;;;18.49;66.36;101558.72;6006574;29;20234;-74
2022/08/21 05:53:59;;;;;;;4.72;3.58;;;;;;;18.58;65.49;101554.97;5998192;29;20234;-75
2022/08/21 05:57:21;;;;;;;6.13;4.72;;;;;;;18.59;65.42;101556.66;6008242;29;20234;-75
2022/08/21 06:00:43;;;;;;;5.93;3.80;;;;;;;18.48;66.18;101551.56;6005470;29;20242;-75
2022/08/21 06:04:04;;;;;;;4.53;3.45;;;;;;;18.29;65.95;101554.59;6006442;29;20239;-75
2022/08/21 06:07:26;;;;;;;7.07;4.72;;;;;;;18.55;65.40;101554.44;6009662;29;20562;-74
2022/08/21 06:10:49;;;;;;;5.28;3.88;;;;;;;18.51;65.79;101555.81;5989959;29;20246;-75
2022/08/21 06:14:10;;;;;;;5.72;3.67;;;;;;;18.75;64.64;101561.28;6003564;29;20239;-74
2022/08/21 06:17:31;;;;;;;9.05;5.05;;;;;;;18.98;64.74;101557.63;6011449;29;20231;-74
2022/08/21 06:20:52;;;;;;;5.70;3.67;;;;;;;19.11;63.89;101557.97;6014247;29;20242;-74
2022/08/21 06:24:14;;;;;;;3.72;3.42;;;;;;;18.91;63.97;101564.00;6000666;29;20266;-75
2022/08/21 06:27:35;;;;;;;3.88;3.47;;;;;;;18.60;64.89;101563.00;6002974;29;20658;-74
2022/08/21 06:30:56;;;;;;;2.88;2.50;;;;;;;18.51;65.25;101564.88;6015826;29;20234;-75
2022/08/21 06:34:18;;;;;;;5.28;3.47;;;;;;;18.16;65.93;101565.16;6006656;29;20238;-75
2022/08/21 06:37:39;;;;;;;6.53;3.60;;;;;;;18.34;65.82;101557.66;6009809;29;20525;-74
2022/08/21 06:41:01;;;;;;;4.65;3.40;;;;;;;17.92;66.44;101555.03;6017099;29;20231;-75
2022/08/21 06:44:22;;;;;;;2.90;2.65;;;;;;;18.07;65.28;101552.50;6017602;29;20238;-74
2022/08/21 06:47:43;;;;;;;2.75;2.40;;;;;;;18.28;64.56;101558.34;6014440;29;20830;-75
2022/08/21 06:51:05;;;;;;;3.35;2.55;;;;;;;18.62;62.86;101558.22;6010447;29;20551;-75
2022/08/21 06:54:26;;;;;;;2.33;1.75;;;;;;;18.96;62.66;101554.22;6011565;29;20247;-76
2022/08/21 06:57:48;;;;;;;5.03;2.95;;;;;;;19.29;61.65;101548.69;6017598;29;20336;-75
2022/08/21 07:01:09;;;;;;;5.10;2.42;;;;;;;18.98;61.80;101537.69;6010072;29;20230;-75
2022/08/21 07:04:30;;;;;;;3.15;2.85;;;;;;;18.96;62.66;101545.19;6012610;29;20230;-75
2022/08/21 07:07:51;;;;;;;4.45;2.10;;;;;;;18.97;61.84;101542.28;6013011;29;20799;-75
2022/08/21 07:11:15;;;;;;;5.88;3.10;;;;;;;18.85;62.02;101535.50;6012183;29;20615;-76
2022/08/21 07:14:38;;;;;;;4.00;2.33;;;;;;;19.13;61.95;101541.38;6005646;29;20239;-75
2022/08/21 07:17:59;;;;;;;5.97;3.22;;;;;;;19.57;60.49;101536.28;6010262;29;20313;-75
2022/08/21 07:21:20;;;;;;;7.60;3.00;;;;;;;20.19;59.39;101539.88;6008770;29;20235;-75
2022/08/21 07:24:41;;;;;;;6.28;2.65;;;;;;;20.49;58.03;101528.00;6006598;29;20535;-74
2022/08/21 07:28:03;;;;;;;6.20;3.65;;;;;;;20.48;56.82;101520.81;6010299;29;20297;-74
2022/08/21 07:31:26;;;;;;;8.40;4.80;;;;;;;20.15;58.36;101517.44;6007385;29;21156;-75
2022/08/21 07:34:47;;;;;;;4.55;2.47;;;;;;;20.16;58.35;101529.25;6007686;29;20957;-74
2022/08/21 07:38:08;;;;;;;3.25;2.22;;;;;;;20.08;57.76;101521.09;6011679;29;20316;-76
2022/08/21 07:41:30;;;;;;;4.15;2.45;;;;;;;20.28;57.85;101516.88;5987731;29;20245;-75
2022/08/21 07:44:51;;;;;;;4.95;2.42;;;;;;;20.65;57.25;101512.25;6010549;29;20493;-74
2022/08/21 07:48:13;;;;;;;4.80;2.83;;;;;;;20.71;56.72;101506.03;5999680;29;20238;-71
2022/08/21 07:51:35;;;;;;;4.95;2.72;;;;;;;20.54;56.10;101511.88;6010416;29;20278;-71
2022/08/21 07:54:55;;;;;;;4.20;2.40;;;;;;;20.50;56.60;101511.41;6027464;29;20238;-72
2022/08/21 07:58:17;;;;;;;3.38;2.65;;;;;;;20.85;55.96;101508.97;6019840;29;20226;-72
2022/08/21 08:01:38;;;;;;;6.70;2.40;;;;;;;20.14;57.50;101507.53;6017154;29;20573;-72
2022/08/21 08:05:01;;;;;;;4.85;2.35;;;;;;;20.73;56.52;101506.69;6016965;29;20231;-72
2022/08/21 08:08:23;;;;;;;5.13;2.85;;;;;;;20.99;56.14;101499.91;6026361;29;20329;-72
2022/08/21 08:11:44;;;;;;;3.25;1.98;;;;;;;21.34;55.03;101501.94;6008549;29;20614;-72
2022/08/21 08:15:10;;;;;;;2.58;2.17;;;;;;;21.75;54.24;101497.59;6007500;29;20242;-74
2022/08/21 08:18:31;;;;;;;4.50;2.35;;;;;;;21.59;53.39;101494.25;6007863;29;20616;-72
2022/08/21 08:21:54;;;;;;;3.13;2.15;;;;;;;22.26;52.76;101495.63;6015348;29;20246;-74
2022/08/21 08:25:17;;;;;;;4.07;2.67;;;;;;;21.40;54.03;101491.03;6011768;29;20250;-76
2022/08/21 08:28:38;;;;;;;5.13;2.70;;;;;;;21.75;53.36;101492.09;5999806;29;20235;-74
2022/08/21 08:31:59;;;;;;;4.85;2.60;;;;;;;22.10;51.87;101496.75;6003748;29;20234;-73
2022/08/21 08:35:20;;;;;;;4.57;2.53;;;;;;;21.98;52.68;101497.47;6002862;29;20238;-74
2022/08/21 08:38:43;;;;;;;4.22;2.83;;;;;;;21.82;51.94;101492.22;6003612;29;20242;-74
2022/08/21 08:42:09;;;;;;;4.65;2.70;;;;;;;21.98;52.08;101494.72;6012071;29;20238;-68
2022/08/21 08:45:35;;;;;;;119.35;109.75;;;;;;;22.30;52.28;101485.94;6005644;29;20233;-71
2022/08/21 08:49:02;;;;;;;195.10;176.95;;;;;;;22.48;52.40;101479.97;6001974;29;20579;-72
2022/08/21 08:52:28;;;;;;;53.67;49.25;;;;;;;22.90;50.68;101486.25;6015414;29;20250;-74
2022/08/21 08:55:52;;;;;;;55.10;49.13;;;;;;;22.91;52.97;101479.69;6018624;29;20659;-74
2022/08/21 08:59:21;;;;;;;158.55;147.57;;;;;;;23.42;51.82;101474.72;5998670;29;22704;-69
2022/08/21 09:02:45;;;;;;;14.13;12.80;;;;;;;23.40;49.25;101482.34;6005008;29;20258;-70
2022/08/21 09:06:19;;;;;;;4.70;2.35;;;;;;;22.30;51.79;101476.88;6011802;29;20231;-70
2022/08/21 09:09:52;;;;;;;6.03;3.00;;;;;;;22.34;51.54;101486.41;6012329;29;20553;-70
2022/08/21 09:13:21;;;;;;;4.70;2.40;;;;;;;23.09;50.61;101478.31;6003975;29;20239;-71
2022/08/21 09:16:54;;;;;;;6.35;2.35;;;;;;;22.44;51.25;101478.66;6008935;29;20670;-70
2022/08/21 09:20:24;;;;;;;5.18;3.20;;;;;;;22.34;51.60;101472.66;6014235;29;20246;-71
2022/08/21 09:23:55;;;;;;;5.13;3.17;;;;;;;22.71;51.39;101464.09;6014678;29;20249;-71
2022/08/21 09:27:18;;;;;;;4.32;2.47;;;;;;;23.41;50.04;101475.75;6014181;29;20241;-70
2022/08/21 09:30:41;;;;;;;5.07;2.72;;;;;;;23.07;49.52;101472.16;6012299;29;20763;-70
2022/08/21 09:34:04;;;;;;;5.45;3.75;;;;;;;22.34;51.52;101459.78;6014461;29;20234;-70
2022/08/21 09:37:28;;;;;;;5.53;3.45;;;;;;;22.51;50.65;101460.34;6010327;29;20747;-71
2022/08/21 09:40:58;;;;;;;9.18;3.70;;;;;;;22.38;50.93;101452.84;6008191;29;21458;-71
2022/08/21 09:44:26;;;;;;;5.18;3.22;;;;;;;23.11;49.33;101465.22;6011428;29;20230;-71
2022/08/21 09:47:48;;;;;;;8.63;3.35;;;;;;;23.62;48.78;101459.09;6014066;29;20233;-71
2022/08/21 09:51:11;;;;;;;7.18;3.63;;;;;;;23.78;47.93;101466.16;6008287;29;20262;-71
2022/08/21 09:54:35;;;;;;;10.45;3.70;;;;;;;24.20;47.90;101456.72;6009140;29;20226;-70
2022/08/21 09:57:55;;;;;;;10.77;3.35;;;;;;;23.18;49.26;101463.31;6009356;29;20697;-71
2022/08/21 10:01:20;;;;;;;8.05;3.60;;;;;;;22.91;50.81;101454.94;6004740;29;20416;-70
2022/08/21 10:04:50;;;;;;;6.45;3.75;;;;;;;23.65;49.47;101453.19;6013062;29;20227;-71
2022/08/21 10:08:19;;;;;;;7.55;3.20;;;;;;;24.36;47.34;101445.28;6011318;29;20672;-72
2022/08/21 10:11:41;;;;;;;6.75;3.25;;;;;;;24.57;48.18;101442.31;6013067;29;20234;-70
2022/08/21 10:15:10;;;;;;;5.40;3.60;;;;;;;23.50;48.74;101459.91;6014398;29;20243;-69
2022/08/21 10:18:39;;;;;;;5.05;2.78;;;;;;;23.37;49.91;101454.34;6011963;29;20341;-71
2022/08/21 10:22:13;;;;;;;5.47;2.20;;;;;;;24.41;47.60;101446.31;6010832;29;20570;-70
2022/08/21 10:25:49;;;;;;;5.22;2.88;;;;;;;24.98;46.47;101459.44;6011754;29;20239;-71
2022/08/21 10:29:21;;;;;;;5.43;2.75;;;;;;;24.69;47.02;101450.75;6013698;29;20478;-71
2022/08/21 10:33:03;;;;;;;4.05;2.42;;;;;;;24.45;47.72;101449.50;6006700;29;20708;-71
2022/08/21 10:36:30;;;;;;;5.97;2.72;;;;;;;24.03;47.47;101460.91;6011950;29;20247;-68
2022/08/21 10:40:08;;;;;;;10.05;3.92;;;;;;;24.06;47.96;101455.84;5996070;29;20328;-71
2022/08/21 10:43:38;;;;;;;5.85;3.10;;;;;;;24.14;48.17;101452.03;5999870;29;20234;-70
2022/08/21 10:47:05;;;;;;;6.72;3.10;;;;;;;24.72;46.42;101444.81;6008425;29;20235;-70
2022/08/21 10:50:32;;;;;;;6.72;2.92;;;;;;;24.91;45.75;101441.22;6006676;29;20266;-70
2022/08/21 10:54:02;;;;;;;7.30;2.17;;;;;;;25.01;44.69;101444.38;6001621;29;20319;-71
2022/08/21 10:57:32;;;;;;;4.00;2.72;;;;;;;25.01;44.08;101444.38;5993801;29;20563;-70
2022/08/21 11:00:58;;;;;;;6.32;2.38;;;;;;;24.62;43.45;101450.75;6008109;29;20612;-71
2022/08/21 11:04:26;;;;;;;3.83;2.20;;;;;;;25.42;43.29;101444.03;6000273;29;20325;-70
2022/08/21 11:07:52;;;;;;;4.45;2.28;;;;;;;25.23;42.54;101441.09;6001748;29;20229;-70
2022/08/21 11:11:19;;;;;;;3.50;2.58;;;;;;;25.19;42.27;101439.00;6007173;29;20278;-69
2022/08/21 11:14:52;;;;;;;3.92;2.28;;;;;;;25.13;43.65;101437.97;6002118;29;20788;-70
2022/08/21 11:18:24;;;;;;;3.90;2.30;;;;;;;26.45;40.94;101436.13;6000566;29;20270;-70
2022/08/21 11:21:49;;;;;;;4.78;2.30;;;;;;;25.73;40.59;101439.41;5999022;29;20329;-70
2022/08/21 11:25:18;;;;;;;6.22;2.33;;;;;;;25.81;41.22;101441.03;5999993;29;20310;-70
2022/08/21 11:28:47;;;;;;;4.45;1.98;;;;;;;26.32;40.08;101447.31;6010652;29;20234;-70
2022/08/21 11:32:30;;;;;;;4.35;2.45;;;;;;;25.31;40.61;101446.38;5991275;29;20233;-69
2022/08/21 11:36:03;;;;;;;4.72;2.17;;;;;;;25.75;40.27;101453.00;5999961;29;20336;-69
2022/08/21 11:39:31;;;;;;;3.35;1.73;;;;;;;26.47;37.50;101449.75;5997952;29;20250;-68
2022/08/21 11:43:02;;;;;;;2.67;1.73;;;;;;;26.54;37.92;101453.28;6006226;29;20234;-68
2022/08/21 11:46:32;;;;;;;3.05;1.83;;;;;;;26.18;38.05;101453.19;5987592;29;20233;-69
2022/08/21 11:50:07;;;;;;;4.35;2.70;;;;;;;27.48;37.06;101451.88;5989578;29;20612;-68
2022/08/21 11:53:33;;;;;;;3.78;1.80;;;;;;;29.10;34.08;101456.97;5995812;29;20301;-69
2022/08/21 11:57:00;;;;;;;3.38;1.85;;;;;;;29.39;32.63;101457.91;6004797;29;20509;-68
2022/08/21 12:00:26;;;;;;;4.70;2.95;;;;;;;28.63;32.29;101449.72;5994763;29;20239;-69
2022/08/21 12:03:55;;;;;;;3.30;2.10;;;;;;;32.87;27.10;101445.09;6009922;29;20234;-69
2022/08/21 12:07:31;;;;;;;2.88;1.75;;;;;;;35.56;23.35;101438.47;6005617;29;20780;-69
2022/08/21 12:11:02;;;;;;;3.15;1.95;;;;;;;34.99;23.82;101432.50;6015142;29;20826;-70
2022/08/21 12:14:23;;;;;;;2.60;1.85;;;;;;;31.95;27.74;101451.00;6014914;29;20241;-70
2022/08/21 12:17:58;;;;;;;2.47;1.80;;;;;;;35.41;23.53;101435.72;6001167;29;21062;-69
2022/08/21 12:21:25;;;;;;;3.95;2.10;;;;;;;34.44;24.36;101434.19;6016924;29;20624;-68
2022/08/21 12:24:50;;;;;;;2.00;1.63;;;;;;;35.26;24.22;101438.56;6009009;29;20226;-69
2022/08/21 12:28:14;;;;;;;2.17;1.25;;;;;;;33.66;24.96;101434.63;6006035;29;20246;-68
2022/08/21 12:31:35;;;;;;;2.80;1.75;;;;;;;34.29;24.31;101434.22;6012892;29;20231;-68
2022/08/21 12:35:03;;;;;;;2.42;1.67;;;;;;;33.14;26.35;101433.81;6012950;29;20235;-69
2022/08/21 12:38:29;;;;;;;1.52;1.42;;;;;;;29.62;31.72;101441.16;6011651;29;20673;-68
2022/08/21 12:41:56;;;;;;;3.10;1.73;;;;;;;34.45;25.30;101435.03;6008723;29;20772;-69
2022/08/21 12:45:20;;;;;;;4.28;2.00;;;;;;;35.54;23.29;101439.88;6019244;29;20235;-68
2022/08/21 12:48:47;;;;;;;2.75;2.10;;;;;;;35.22;23.39;101435.50;6011456;29;20238;-69
2022/08/21 12:52:17;;;;;;;7.50;3.83;;;;;;;34.55;23.47;101426.66;6006555;29;20226;-70
2022/08/21 12:55:42;;;;;;;2.92;1.80;;;;;;;37.04;22.04;101429.47;6011982;29;20515;-69
2022/08/21 12:59:07;;;;;;;5.57;1.63;;;;;;;36.93;21.89;101433.53;6011300;29;20234;-70
2022/08/21 13:02:32;;;;;;;2.33;1.30;;;;;;;36.98;21.82;101424.19;6011912;29;20234;-69
2022/08/21 13:05:54;;;;;;;1.42;1.33;;;;;;;38.83;20.33;101420.63;6015052;29;20628;-68
2022/08/21 13:09:17;;;;;;;2.60;1.83;;;;;;;35.77;22.89;101417.59;6011558;29;20227;-68
2022/08/21 13:12:38;;;;;;;2.40;1.60;;;;;;;34.15;24.02;101423.84;6016167;29;20743;-69
2022/08/21 13:16:04;;;;;;;3.08;1.52;;;;;;;35.07;23.87;101415.91;6015201;29;20250;-69
2022/08/21 13:19:25;;;;;;;3.50;1.63;;;;;;;37.89;21.22;101419.09;6013039;29;20235;-68
2022/08/21 13:22:46;;;;;;;1.58;1.10;;;;;;;34.24;23.84;101419.34;6010038;29;20230;-70
2022/08/21 13:26:14;;;;;;;3.17;1.95;;;;;;;36.02;23.07;101413.81;6013168;29;20443;-69
2022/08/21 13:29:35;;;;;;;3.88;1.75;;;;;;;36.59;22.00;101410.25;6020071;29;20246;-69
2022/08/21 13:33:00;;;;;;;2.13;1.58;;;;;;;37.10;21.23;101411.41;6011927;29;20322;-68
2022/08/21 13:36:26;;;;;;;1.65;1.40;;;;;;;36.60;21.07;101406.28;6014753;29;20513;-69
2022/08/21 13:39:51;;;;;;;3.15;1.40;;;;;;;35.07;23.00;101406.69;6018304;29;20241;-69
2022/08/21 13:43:14;;;;;;;2.00;1.13;;;;;;;33.41;24.60;101409.34;6024778;29;20229;-69
2022/08/21 13:46:37;;;;;;;3.25;1.58;;;;;;;34.88;22.97;101412.00;6025767;29;20243;-69
2022/08/21 13:50:00;;;;;;;5.05;2.20;;;;;;;35.45;22.85;101407.91;6023676;29;20325;-69
2022/08/21 13:53:28;;;;;;;2.17;1.98;;;;;;;34.31;23.60;101401.16;6022146;29;21972;-69
2022/08/21 13:56:49;;;;;;;1.45;1.00;;;;;;;35.17;22.29;101404.66;6018933;29;20513;-68
2022/08/21 14:00:14;;;;;;;3.33;2.40;;;;;;;34.79;22.76;101404.47;6020727;29;20230;-69
2022/08/21 14:03:41;;;;;;;1.88;1.08;;;;;;;34.22;23.28;101402.00;6017759;29;20544;-69
2022/08/21 14:07:16;;;;;;;2.25;1.20;;;;;;;31.16;27.31;101396.75;6013496;29;20230;-70
2022/08/21 14:10:43;;;;;;;2.90;1.17;;;;;;;32.28;26.81;101399.66;6019278;29;20612;-69
2022/08/21 14:14:08;;;;;;;2.17;2.00;;;;;;;33.96;24.47;101400.28;6016770;29;20321;-69
2022/08/21 14:17:31;;;;;;;2.03;1.42;;;;;;;33.74;24.04;101395.75;6011232;29;20325;-68
2022/08/21 14:21:03;;;;;;;6.40;1.98;;;;;;;33.04;25.50;101399.09;6005346;29;20231;-67
2022/08/21 14:24:31;;;;;;;3.47;2.00;;;;;;;32.47;26.10;101409.34;6016855;29;20237;-68
2022/08/21 14:27:53;;;;;;;2.17;1.35;;;;;;;31.75;26.41;101403.31;6019852;29;20231;-68
2022/08/21 14:31:17;;;;;;;2.38;1.48;;;;;;;30.34;29.13;101397.72;6011491;29;20528;-68
2022/08/21 14:34:38;;;;;;;2.40;1.88;;;;;;;30.11;29.38;101398.72;6022416;29;20230;-69
2022/08/21 14:37:59;;;;;;;3.45;1.42;;;;;;;29.89;30.25;101400.56;6017110;29;20329;-67
2022/08/21 14:41:23;;;;;;;2.25;2.00;;;;;;;28.74;31.83;101397.00;6010216;29;20246;-68
2022/08/21 14:44:45;;;;;;;3.65;1.70;;;;;;;28.70;31.80;101393.03;6009368;29;20230;-69
2022/08/21 14:48:06;;;;;;;1.33;1.13;;;;;;;28.50;32.06;101400.81;6010357;29;22092;-69
2022/08/21 14:51:28;;;;;;;4.00;1.50;;;;;;;27.49;32.45;101405.63;6012680;29;20238;-69
2022/08/21 14:54:50;;;;;;;1.88;1.52;;;;;;;28.69;31.27;101402.44;6010078;29;20638;-69
2022/08/21 14:58:12;;;;;;;2.72;1.55;;;;;;;28.32;32.22;101400.94;6009317;29;20554;-69
2022/08/21 15:01:36;;;;;;;1.85;1.10;;;;;;;28.31;32.65;101402.00;6011287;29;20238;-69
2022/08/21 15:04:57;;;;;;;2.00;1.40;;;;;;;29.39;31.96;101403.16;6010610;29;20608;-69
2022/08/21 15:08:19;;;;;;;1.75;1.20;;;;;;;28.65;32.02;101401.22;6011059;29;20253;-69
2022/08/21 15:11:39;;;;;;;2.67;1.60;;;;;;;29.54;32.38;101403.44;6007008;29;20234;-69
2022/08/21 15:15:02;;;;;;;3.55;1.52;;;;;;;29.21;32.16;101404.19;6014664;29;20573;-69
2022/08/21 15:18:26;;;;;;;3.95;1.90;;;;;;;29.66;32.42;101398.72;6011881;29;20234;-69
2022/08/21 15:21:47;;;;;;;4.43;1.48;;;;;;;30.44;31.48;101397.88;6008630;29;20561;-69
2022/08/21 15:25:09;;;;;;;2.08;1.27;;;;;;;30.75;30.96;101398.09;6009516;29;20238;-69
2022/08/21 15:28:30;;;;;;;2.08;1.13;;;;;;;31.06;30.59;101399.41;6009342;29;20336;-68
2022/08/21 15:31:55;;;;;;;2.85;1.45;;;;;;;31.13;30.25;101399.19;6010975;29;20242;-69
2022/08/21 15:35:17;;;;;;;3.22;1.67;;;;;;;31.30;29.40;101398.03;6012531;29;20232;-70
2022/08/21 15:38:37;;;;;;;4.38;1.88;;;;;;;29.23;32.10;101396.44;6014615;29;20243;-69
2022/08/21 15:41:59;;;;;;;1.25;1.10;;;;;;;29.83;31.44;101396.00;6014216;29;20411;-69
2022/08/21 15:45:20;;;;;;;3.03;1.80;;;;;;;30.39;30.87;101390.31;6012259;29;20235;-69
2022/08/21 15:48:45;;;;;;;2.40;1.30;;;;;;;30.31;32.05;101401.03;6019867;29;20239;-69